createdAt,value
2019-04-05T00:02:02.882Z,22.87
2019-04-05T00:04:32.867Z,18.98
2019-04-05T00:07:02.891Z,26.20
2019-04-05T00:09:32.855Z,18.62
2019-04-05T00:12:02.683Z,19.60
2019-04-05T00:14:32.534Z,22.90
2019-04-05T00:17:02.319Z,19.50
2019-04-05T00:19:32.251Z,19.35
2019-04-05T00:22:02.281Z,21.37
2019-04-05T00:24:32.248Z,21.90
2019-04-05T00:27:02.220Z,25.50
2019-04-05T00:29:32.228Z,20.32
2019-04-05T00:32:02.630Z,23.07
2019-04-05T00:34:32.615Z,16.02
2019-04-05T00:37:02.425Z,16.20
2019-04-05T00:39:32.220Z,20.70
2019-04-05T00:42:02.196Z,17.73
2019-04-05T00:44:32.038Z,18.25
2019-04-05T00:47:01.891Z,17.12
2019-04-05T00:49:32.008Z,16.30
2019-04-05T00:52:02.288Z,22.35
2019-04-05T00:54:32.461Z,17.23
2019-04-05T00:57:02.901Z,16.17
2019-04-05T00:59:33.155Z,16.93
2019-04-05T01:02:03.452Z,18.95
2019-04-05T01:04:33.907Z,13.13
2019-04-05T01:07:04.035Z,13.88
2019-04-05T01:09:34.202Z,15.13
2019-04-05T01:12:04.561Z,19.20
2019-04-05T01:14:35.000Z,13.30
2019-04-05T01:17:05.176Z,18.77
2019-04-05T01:19:37.591Z,17.12
2019-04-05T01:22:10.514Z,15.28
2019-04-05T01:24:41.474Z,15.03
2019-04-05T01:27:13.314Z,14.30
2019-04-05T01:29:44.498Z,17.30
2019-04-05T01:32:14.809Z,16.15
2019-04-05T01:34:44.614Z,15.38
2019-04-05T01:37:14.389Z,18.62
2019-04-05T01:39:44.296Z,16.12
2019-04-05T01:42:14.299Z,15.45
2019-04-05T01:44:44.832Z,17.05
2019-04-05T01:47:14.807Z,17.73
2019-04-05T01:49:44.619Z,17.92
2019-04-05T01:52:14.395Z,17.12
2019-04-05T01:54:44.398Z,24.30
2019-04-05T01:57:14.311Z,20.32
2019-04-05T01:59:44.367Z,16.30
2019-04-05T02:02:14.299Z,18.10
2019-04-05T02:04:44.256Z,19.07
2019-04-05T02:07:14.284Z,19.32
2019-04-05T02:09:44.253Z,22.70
2019-04-05T02:12:14.331Z,19.90
2019-04-05T02:14:44.506Z,19.17
2019-04-05T02:17:14.306Z,17.90
2019-04-05T02:19:44.443Z,18.62
2019-04-05T02:22:14.293Z,17.27
2019-04-05T02:24:44.255Z,27.45
2019-04-05T02:27:14.071Z,20.48
2019-04-05T02:29:44.035Z,20.97
2019-04-05T02:32:14.015Z,20.70
2019-04-05T02:34:43.961Z,21.73
2019-04-05T02:37:14.088Z,16.25
2019-04-05T02:39:43.865Z,23.45
2019-04-05T02:42:13.876Z,25.88
2019-04-05T02:44:46.936Z,23.65
2019-04-05T02:47:17.332Z,21.73
2019-04-05T02:49:48.743Z,21.17
2019-04-05T02:52:21.718Z,18.85
2019-04-05T02:54:52.787Z,23.85
2019-04-05T02:57:22.721Z,20.40
2019-04-05T02:59:54.003Z,21.00
2019-04-05T03:02:24.896Z,19.10
2019-04-05T03:04:55.022Z,20.10
2019-04-05T03:07:26.895Z,28.47
2019-04-05T03:09:57.775Z,21.60
2019-04-05T03:12:28.338Z,20.25
2019-04-05T03:14:59.736Z,22.75
2019-04-05T03:17:29.631Z,20.15
2019-04-05T03:20:02.636Z,28.30
2019-04-05T03:22:35.383Z,28.42
2019-04-05T03:25:06.322Z,28.30
2019-04-05T03:27:39.024Z,27.30
2019-04-05T03:30:09.695Z,25.05
2019-04-05T03:32:39.671Z,26.82
2019-04-05T03:35:09.488Z,24.27
2019-04-05T03:37:39.564Z,29.75
2019-04-05T03:40:09.733Z,29.95
2019-04-05T03:42:39.654Z,28.23
2019-04-05T03:45:09.608Z,26.90
2019-04-05T03:47:39.790Z,26.15
2019-04-05T03:50:10.000Z,23.02
2019-04-05T03:52:40.174Z,24.98
2019-04-05T03:55:10.048Z,28.38
2019-04-05T03:57:40.900Z,29.60
2019-04-05T04:00:11.144Z,28.57
2019-04-05T04:02:41.215Z,32.15
2019-04-05T04:05:11.150Z,32.20
2019-04-05T04:07:40.999Z,31.12
2019-04-05T04:10:13.714Z,31.07
2019-04-05T04:12:43.849Z,26.07
2019-04-05T04:15:14.735Z,28.52
2019-04-05T04:17:46.011Z,31.15
2019-04-05T04:20:27.995Z,33.40
2019-04-05T04:22:57.934Z,30.97
2019-04-05T04:25:28.891Z,30.62
2019-04-05T04:27:58.943Z,34.20
2019-04-05T04:30:28.924Z,32.83
2019-04-05T04:32:59.736Z,31.60
2019-04-05T04:35:30.580Z,32.98
2019-04-05T04:38:01.085Z,32.80
2019-04-05T04:40:32.455Z,31.15
2019-04-05T04:43:03.029Z,32.25
2019-04-05T04:45:33.506Z,33.55
2019-04-05T04:48:03.451Z,35.52
2019-04-05T04:50:34.154Z,31.30
2019-04-05T04:53:04.440Z,35.08
2019-04-05T04:55:35.019Z,34.18
2019-04-05T04:58:05.439Z,33.92
2019-04-05T05:00:35.840Z,43.75
2019-04-05T05:03:06.440Z,32.38
2019-04-05T05:05:36.862Z,36.10
2019-04-05T05:08:07.842Z,32.83
2019-04-05T05:10:38.017Z,30.60
2019-04-05T05:13:08.417Z,32.05
2019-04-05T05:15:38.411Z,35.03
2019-04-05T05:18:08.575Z,35.17
2019-04-05T05:20:39.094Z,26.40
2019-04-05T05:23:09.142Z,37.83
2019-04-05T05:25:39.354Z,27.80
2019-04-05T05:28:09.578Z,32.10
2019-04-05T05:30:40.460Z,33.63
2019-04-05T05:33:10.832Z,33.05
2019-04-05T05:35:40.738Z,31.73
2019-04-05T05:38:10.829Z,31.75
2019-04-05T05:40:40.607Z,30.97
2019-04-05T05:43:10.578Z,34.13
2019-04-05T05:45:40.471Z,30.15
2019-04-05T05:48:10.426Z,35.17
2019-04-05T05:50:41.542Z,33.23
2019-04-05T05:53:12.418Z,32.70
2019-04-05T05:55:42.210Z,36.50
2019-04-05T05:58:12.152Z,36.63
2019-04-05T06:00:42.111Z,37.88
2019-04-05T06:03:12.105Z,39.48
2019-04-05T06:05:42.187Z,33.73
2019-04-05T06:08:12.066Z,38.78
2019-04-05T06:10:42.122Z,42.73
2019-04-05T06:13:12.127Z,35.10
2019-04-05T06:15:42.423Z,39.03
2019-04-05T06:18:12.868Z,35.65
2019-04-05T06:20:43.615Z,37.38
2019-04-05T06:23:13.396Z,34.88
2019-04-05T06:25:43.672Z,35.50
2019-04-05T06:28:14.849Z,34.80
2019-04-05T06:30:44.675Z,34.50
2019-04-05T06:33:14.469Z,32.10
2019-04-05T06:35:44.347Z,33.45
2019-04-05T06:38:14.145Z,31.10
2019-04-05T06:40:45.112Z,29.10
2019-04-05T06:43:15.149Z,30.27
2019-04-05T06:45:45.316Z,29.82
2019-04-05T06:48:19.404Z,31.80
2019-04-05T06:50:47.460Z,32.13
2019-04-05T06:53:17.602Z,29.95
2019-04-05T06:55:47.398Z,29.50
2019-04-05T06:58:20.624Z,26.73
2019-04-05T07:00:57.117Z,26.93
2019-04-05T07:03:20.507Z,28.95
2019-04-05T07:05:50.483Z,30.72
2019-04-05T07:08:20.561Z,29.32
2019-04-05T07:10:50.436Z,30.00
2019-04-05T07:13:20.263Z,29.32
2019-04-05T07:15:50.117Z,31.12
2019-04-05T07:18:32.552Z,28.42
2019-04-05T07:20:52.270Z,31.68
2019-04-05T07:23:22.118Z,30.75
2019-04-05T07:25:52.176Z,29.18
2019-04-05T07:28:24.956Z,29.48
2019-04-05T07:30:53.902Z,30.23
2019-04-05T07:33:23.679Z,31.15
2019-04-05T07:35:53.722Z,36.77
2019-04-05T07:38:23.503Z,28.57
2019-04-05T07:40:53.419Z,29.25
2019-04-05T07:43:23.231Z,30.08
2019-04-05T07:45:53.016Z,27.75
2019-04-05T07:48:22.791Z,31.70
2019-04-05T07:50:52.819Z,29.18
2019-04-05T07:53:22.734Z,31.27
2019-04-05T07:55:52.513Z,32.10
2019-04-05T07:58:22.529Z,26.90
2019-04-05T08:00:54.684Z,25.20
2019-04-05T08:03:25.500Z,30.15
2019-04-05T08:05:55.723Z,30.95
2019-04-05T08:08:40.498Z,30.00
2019-04-05T08:11:10.762Z,30.62
2019-04-05T08:13:43.008Z,27.10
2019-04-05T08:16:12.809Z,27.75
2019-04-05T08:18:42.814Z,22.05
2019-04-05T08:21:13.034Z,26.57
2019-04-05T08:23:43.375Z,27.35
2019-04-05T08:26:13.688Z,30.02
2019-04-05T08:28:44.078Z,27.13
2019-04-05T08:31:14.709Z,28.23
2019-04-05T08:33:44.775Z,26.73
2019-04-05T08:36:14.787Z,24.45
2019-04-05T08:38:44.527Z,23.02
2019-04-05T08:41:14.404Z,26.37
2019-04-05T08:43:46.962Z,19.27
2019-04-05T08:46:15.744Z,19.40
2019-04-05T08:48:45.719Z,18.37
2019-04-05T08:51:15.693Z,23.40
2019-04-05T08:53:45.736Z,22.15
2019-04-05T08:56:15.655Z,25.68
2019-04-05T08:58:45.623Z,18.82
2019-04-05T09:01:15.438Z,22.45
2019-04-05T09:03:45.396Z,18.73
2019-04-05T09:06:15.367Z,17.87
2019-04-05T09:08:45.192Z,20.82
2019-04-05T09:11:15.047Z,18.02
2019-04-05T09:13:45.011Z,18.07
2019-04-05T09:16:15.074Z,15.08
2019-04-05T09:18:45.112Z,16.05
2019-04-05T09:21:17.685Z,20.45
2019-04-05T09:23:46.508Z,20.77
2019-04-05T09:26:16.479Z,17.15
2019-04-05T09:28:46.447Z,14.83
2019-04-05T09:31:16.275Z,16.82
2019-04-05T09:33:46.431Z,18.60
2019-04-05T09:36:16.400Z,13.35
2019-04-05T09:38:46.223Z,13.15
2019-04-05T09:41:16.179Z,14.13
2019-04-05T09:43:46.145Z,13.75
2019-04-05T09:46:16.150Z,11.10
2019-04-05T09:48:46.099Z,12.40
2019-04-05T09:51:16.143Z,13.00
2019-04-05T09:53:46.161Z,16.23
2019-04-05T09:56:16.136Z,12.07
2019-04-05T09:58:46.194Z,14.13
2019-04-05T10:01:16.107Z,12.73
2019-04-05T10:03:46.078Z,12.13
2019-04-05T10:06:15.863Z,13.45
2019-04-05T10:08:45.680Z,10.48
2019-04-05T10:11:16.138Z,9.65
2019-04-05T10:13:46.101Z,9.98
2019-04-05T10:16:16.111Z,10.18
2019-04-05T10:18:46.134Z,10.05
2019-04-05T10:21:16.108Z,10.53
2019-04-05T10:23:46.168Z,10.45
2019-04-05T10:26:16.187Z,8.18
2019-04-05T10:28:46.062Z,12.35
2019-04-05T10:31:16.102Z,8.80
2019-04-05T10:33:46.138Z,7.80
2019-04-05T10:36:15.913Z,8.68
2019-04-05T10:38:46.205Z,8.73
2019-04-05T10:41:16.191Z,14.20
2019-04-05T10:43:45.978Z,11.80
2019-04-05T10:46:16.522Z,9.03
2019-04-05T10:48:46.405Z,8.33
2019-04-05T10:51:16.180Z,9.05
2019-04-05T10:53:46.173Z,12.10
2019-04-05T10:56:16.510Z,9.48
2019-04-05T10:58:46.415Z,8.63
2019-04-05T11:01:16.442Z,8.55
2019-04-05T11:03:46.410Z,8.38
2019-04-05T11:06:16.185Z,7.35
2019-04-05T11:08:46.060Z,6.42
2019-04-05T11:11:16.048Z,9.53
2019-04-05T11:13:45.896Z,8.00
2019-04-05T11:16:17.195Z,9.18
2019-04-05T11:18:47.038Z,11.05
2019-04-05T11:21:18.384Z,9.68
2019-04-05T11:23:48.507Z,12.65
2019-04-05T11:26:18.799Z,8.18
2019-04-05T11:28:48.810Z,8.38
2019-04-05T11:31:18.694Z,9.03
2019-04-05T11:33:48.767Z,8.53
2019-04-05T11:36:19.131Z,6.50
2019-04-05T11:38:50.810Z,7.62
2019-04-05T11:41:22.719Z,8.50
2019-04-05T11:43:56.061Z,9.58
2019-04-05T11:46:27.728Z,10.08
2019-04-05T11:48:58.391Z,12.15
2019-04-05T11:51:28.468Z,9.95
2019-04-05T11:53:58.463Z,9.08
2019-04-05T11:56:28.351Z,7.08
2019-04-05T11:58:58.133Z,8.75
2019-04-05T12:01:29.757Z,9.65
2019-04-05T12:03:59.635Z,7.55
2019-04-05T12:06:29.411Z,6.83
2019-04-05T12:09:01.338Z,6.65
2019-04-05T12:11:30.710Z,8.68
2019-04-05T12:14:01.085Z,9.60
2019-04-05T12:16:30.991Z,5.53
2019-04-05T12:19:04.500Z,8.23
2019-04-05T12:21:34.738Z,5.87
2019-04-05T12:24:04.222Z,11.38
2019-04-05T12:26:34.466Z,6.50
2019-04-05T12:29:05.386Z,9.35
2019-04-05T12:31:35.951Z,10.32
2019-04-05T12:34:06.095Z,9.10
2019-04-05T12:36:36.160Z,8.65
2019-04-05T12:39:08.323Z,7.75
2019-04-05T12:41:40.410Z,3.98
2019-04-05T12:44:14.314Z,5.78
2019-04-05T12:46:45.947Z,8.43
2019-04-05T12:49:16.023Z,5.50
2019-04-05T12:51:46.449Z,6.00
2019-04-05T12:59:55.696Z,7.45
2019-04-05T13:07:59.280Z,8.88
2019-04-05T13:10:30.598Z,9.95
2019-04-05T13:13:00.667Z,4.03
2019-04-05T13:15:30.715Z,4.95
2019-04-05T13:18:01.410Z,5.45
2019-04-05T13:20:31.517Z,4.83
2019-04-05T13:23:04.300Z,7.35
2019-04-05T13:25:33.008Z,7.03
2019-04-05T13:28:12.754Z,5.12
2019-04-05T13:30:35.003Z,5.05
2019-04-05T13:33:05.079Z,8.50
2019-04-05T13:35:34.859Z,4.67
2019-04-05T13:38:04.628Z,9.30
2019-04-05T13:40:34.467Z,5.67
2019-04-05T13:43:04.284Z,6.47
2019-04-05T13:45:34.059Z,5.75
2019-04-05T13:48:04.152Z,4.35
2019-04-05T13:50:34.088Z,5.53
2019-04-05T13:53:04.140Z,4.92
2019-04-05T13:55:34.519Z,6.40
2019-04-05T13:58:04.334Z,4.67
2019-04-05T14:00:34.705Z,6.50
2019-04-05T14:03:04.796Z,5.65
2019-04-05T14:05:35.068Z,8.23
2019-04-05T14:08:10.274Z,5.92
2019-04-05T14:10:36.707Z,9.23
2019-04-05T14:13:07.631Z,5.60
2019-04-05T14:15:41.795Z,7.08
2019-04-05T14:18:09.627Z,8.03
2019-04-05T14:20:39.966Z,4.47
2019-04-05T14:23:10.093Z,4.62
2019-04-05T14:25:40.162Z,7.08
2019-04-05T14:28:10.078Z,7.42
2019-04-05T14:30:40.136Z,9.80
2019-04-05T14:33:10.959Z,7.40
2019-04-05T14:35:40.950Z,10.78
2019-04-05T14:38:11.831Z,4.75
2019-04-05T14:40:42.056Z,5.30
2019-04-05T14:43:14.682Z,7.67
2019-04-05T14:45:44.214Z,7.05
2019-04-05T14:48:14.106Z,4.40
2019-04-05T14:50:44.019Z,7.80
2019-04-05T14:53:14.162Z,4.80
2019-04-05T14:55:44.099Z,8.65
2019-04-05T14:58:14.402Z,7.62
2019-04-05T15:00:44.443Z,7.62
2019-04-05T15:03:15.619Z,13.40
2019-04-05T15:05:45.572Z,10.32
2019-04-05T15:08:15.347Z,4.85
2019-04-05T15:10:45.329Z,8.25
2019-04-05T15:13:15.326Z,6.33
2019-04-05T15:15:45.279Z,5.22
2019-04-05T15:18:15.731Z,7.42
2019-04-05T15:20:46.147Z,4.90
2019-04-05T15:23:16.043Z,6.10
2019-04-05T15:25:49.439Z,10.00
2019-04-05T15:28:17.755Z,7.37
2019-04-05T15:30:49.558Z,8.95
2019-04-05T15:33:19.271Z,6.03
2019-04-05T15:35:49.255Z,7.22
2019-04-05T15:38:19.032Z,6.35
2019-04-05T15:40:49.019Z,6.75
2019-04-05T15:43:19.447Z,5.12
2019-04-05T15:45:49.276Z,10.38
2019-04-05T15:48:20.473Z,5.47
2019-04-05T15:50:51.944Z,4.95
2019-04-05T15:53:22.118Z,10.55
2019-04-05T15:55:52.095Z,8.48
2019-04-05T15:58:22.081Z,4.90
2019-04-05T16:00:52.111Z,8.88
2019-04-05T16:03:22.055Z,10.93
2019-04-05T16:05:52.112Z,9.80
2019-04-05T16:08:22.123Z,6.95
2019-04-05T16:10:52.099Z,7.00
2019-04-05T16:13:21.982Z,8.40
2019-04-05T16:15:52.116Z,9.33
2019-04-05T16:18:22.051Z,6.45
2019-04-05T16:20:52.955Z,6.87
2019-04-05T16:23:22.736Z,11.65
2019-04-05T16:25:52.543Z,8.23
2019-04-05T16:28:22.631Z,6.92
2019-04-05T16:30:52.671Z,5.67
2019-04-05T16:33:22.663Z,10.20
2019-04-05T16:35:52.652Z,6.85
2019-04-05T16:38:22.427Z,7.65
2019-04-05T16:40:52.415Z,6.62
2019-04-05T16:43:22.298Z,8.10
2019-04-05T16:45:52.075Z,9.78
2019-04-05T16:48:22.936Z,7.08
2019-04-05T16:50:52.752Z,6.72
2019-04-05T16:53:22.742Z,8.53
2019-04-05T16:55:52.618Z,8.18
2019-04-05T16:58:22.611Z,7.85
2019-04-05T17:00:52.395Z,6.65
2019-04-05T17:03:23.031Z,7.78
2019-04-05T17:05:56.041Z,7.53
2019-04-05T17:08:26.115Z,10.35
2019-04-05T17:10:56.003Z,6.62
2019-04-05T17:13:25.994Z,7.00
2019-04-05T17:15:56.059Z,6.85
2019-04-05T17:18:26.127Z,6.00
2019-04-05T17:20:56.043Z,6.20
2019-04-05T17:23:26.114Z,9.68
2019-04-05T17:25:56.029Z,8.83
2019-04-05T17:28:26.021Z,9.58
2019-04-05T17:30:55.771Z,7.20
2019-04-05T17:33:25.590Z,10.53
2019-04-05T17:35:55.544Z,7.62
2019-04-05T17:38:25.314Z,8.55
2019-04-05T17:40:55.304Z,9.95
2019-04-05T17:43:25.589Z,7.87
2019-04-05T17:45:55.875Z,6.67
2019-04-05T17:48:26.010Z,5.97
2019-04-05T17:50:56.055Z,8.30
2019-04-05T17:53:25.826Z,8.33
2019-04-05T17:55:58.847Z,7.35
2019-04-05T17:58:28.410Z,10.80
2019-04-05T18:00:58.265Z,10.10
2019-04-05T18:03:28.087Z,11.93
2019-04-05T18:05:58.024Z,8.88
2019-04-05T18:08:28.072Z,10.38
2019-04-05T18:10:58.136Z,9.43
2019-04-05T18:13:27.957Z,12.90
2019-04-05T18:15:58.023Z,9.83
2019-04-05T18:18:28.085Z,9.58
2019-04-05T18:20:58.021Z,12.40
2019-04-05T18:23:28.073Z,16.77
2019-04-05T18:25:58.079Z,16.97
2019-04-05T18:28:27.966Z,13.10
2019-04-05T18:30:58.035Z,19.75
2019-04-05T18:33:28.343Z,12.75
2019-04-05T18:35:58.623Z,18.30
2019-04-05T18:38:28.412Z,23.32
2019-04-05T18:40:58.386Z,23.12
2019-04-05T18:43:28.282Z,27.32
2019-04-05T18:45:58.071Z,23.38
2019-04-05T18:48:28.046Z,28.12
2019-04-05T18:50:58.075Z,31.17
2019-04-05T18:53:37.482Z,30.85
2019-04-05T18:55:59.522Z,31.30
2019-04-05T18:58:29.315Z,37.00
2019-04-05T19:00:59.519Z,32.65
2019-04-05T19:03:31.352Z,36.25
2019-04-05T19:06:01.248Z,32.58
2019-04-05T19:08:39.429Z,35.48
2019-04-05T19:11:02.737Z,35.13
2019-04-05T19:13:32.630Z,36.35
2019-04-05T19:16:02.600Z,37.28
2019-04-05T19:18:32.487Z,36.48
2019-04-05T19:21:02.682Z,37.70
2019-04-05T19:23:32.653Z,34.73
2019-04-05T19:26:02.641Z,38.17
2019-04-05T19:28:32.643Z,40.85
2019-04-05T19:48:43.521Z,35.38
2019-04-05T19:51:13.547Z,32.08
2019-04-05T19:53:43.528Z,32.55
2019-04-05T19:56:13.586Z,37.67
2019-04-05T19:58:43.600Z,34.92
2019-04-05T20:01:13.566Z,35.58
2019-04-05T20:03:43.520Z,32.78
2019-04-05T20:06:13.554Z,34.60
2019-04-05T20:08:43.534Z,36.77
2019-04-05T20:11:13.575Z,37.50
2019-04-05T20:13:43.646Z,35.65
2019-04-05T20:16:13.472Z,41.23
2019-04-05T20:18:43.288Z,35.10
2019-04-05T20:21:13.245Z,40.78
2019-04-05T20:23:47.761Z,37.63
2019-04-05T20:26:14.666Z,35.10
2019-04-05T20:28:44.627Z,40.78
2019-04-05T20:31:14.597Z,42.25
2019-04-05T20:33:44.420Z,39.48
2019-04-05T20:36:14.383Z,39.42
2019-04-05T20:38:44.582Z,42.50
2019-04-05T20:41:14.906Z,41.45
2019-04-05T20:43:45.246Z,45.35
2019-04-05T20:46:15.451Z,50.05
2019-04-05T20:48:45.623Z,46.25
2019-04-05T20:51:15.503Z,52.73
2019-04-05T20:53:45.475Z,49.77
2019-04-05T20:56:15.300Z,53.85
2019-04-05T20:58:45.262Z,51.55
2019-04-05T21:01:15.218Z,48.45
2019-04-05T21:03:45.045Z,51.02
2019-04-05T21:06:17.133Z,47.45
2019-04-05T21:08:46.311Z,52.70
2019-04-05T21:11:16.135Z,57.67
2019-04-05T21:13:46.895Z,53.13
2019-04-05T21:16:16.897Z,56.50
2019-04-05T21:18:46.686Z,58.40
2019-04-05T21:21:16.647Z,57.17
2019-04-05T21:23:46.625Z,64.27
2019-04-05T21:26:17.329Z,57.15
2019-04-05T21:28:47.212Z,55.92
2019-04-05T21:31:17.171Z,62.10
2019-04-05T21:33:46.999Z,60.90
2019-04-05T21:36:16.960Z,59.10
2019-04-05T21:38:46.920Z,64.40
2019-04-05T21:41:16.740Z,68.70
2019-04-05T21:43:46.593Z,68.83
2019-04-05T21:46:16.570Z,64.87
2019-04-05T21:48:46.374Z,67.70
2019-04-05T21:51:16.345Z,68.92
2019-04-05T21:53:47.421Z,69.65
2019-04-05T21:56:17.428Z,62.70
2019-04-05T21:58:47.212Z,64.97
2019-04-05T22:01:17.851Z,63.23
2019-04-05T22:03:47.675Z,70.80
2019-04-05T22:06:17.571Z,72.65
2019-04-05T22:08:47.353Z,70.75
2019-04-05T22:11:17.645Z,74.05
2019-04-05T22:13:47.561Z,72.30
2019-04-05T22:16:17.678Z,68.85
2019-04-05T22:18:48.659Z,73.35
2019-04-05T22:21:19.185Z,71.33
2019-04-05T22:23:49.614Z,70.85
2019-04-05T22:26:38.542Z,72.80
2019-04-05T22:29:08.351Z,70.60
2019-04-05T22:31:38.428Z,69.07
2019-04-05T22:34:08.367Z,77.45
2019-04-05T22:36:38.412Z,75.92
2019-04-05T22:39:08.581Z,78.57
2019-04-05T22:41:38.620Z,81.85
2019-04-05T22:44:08.432Z,74.20
2019-04-05T22:46:38.233Z,76.15
2019-04-05T22:49:08.267Z,76.75
2019-04-05T22:51:39.256Z,83.58
2019-04-05T22:54:09.244Z,83.12
2019-04-05T22:56:39.240Z,87.92
2019-04-05T22:59:09.276Z,79.22
2019-04-05T23:01:39.759Z,76.37
2019-04-05T23:04:10.060Z,85.57
2019-04-05T23:06:40.048Z,81.82
2019-04-05T23:09:10.023Z,81.57
2019-04-05T23:11:40.066Z,84.90
2019-04-05T23:14:09.995Z,82.15
2019-04-05T23:16:39.972Z,86.20
2019-04-05T23:19:10.018Z,81.95
2019-04-05T23:21:40.088Z,78.72
2019-04-05T23:24:10.024Z,79.35
2019-04-05T23:26:39.979Z,83.40
2019-04-05T23:29:10.308Z,89.15
2019-04-05T23:31:40.279Z,87.53
2019-04-05T23:34:10.647Z,85.97
2019-04-05T23:36:40.991Z,89.70
2019-04-05T23:39:11.186Z,86.53
2019-04-05T23:41:41.509Z,83.55
2019-04-05T23:44:12.057Z,86.28
2019-04-05T23:46:41.960Z,89.70
2019-04-05T23:49:12.040Z,98.15
2019-04-05T23:51:42.927Z,92.40
2019-04-05T23:54:13.209Z,90.45
2019-04-05T23:56:43.577Z,88.40
2019-04-05T23:59:13.784Z,92.10
